Time;durP1;ratioP1;P1;durP2;ratioP2;P2;SDS_P1;SDS_P2;PMS_P1;PMS_P2;Temp;Humidity;BMP_temperature;BMP_pressure;BME280_temperature;BME280_humidity;BME280_pressure;Samples;Min_cycle;Max_cycle;Signal;HPM_P1;HPM_P2
2022/05/28 00:02:15;;;;;;;4.93;1.88;;;11.70;99.90;;;;;;5115914;28;20192;-58
2022/05/28 00:04:41;;;;;;;3.70;2.13;;;11.60;99.90;;;;;;5114968;28;20165;-59
2022/05/28 00:07:07;;;;;;;3.50;2.00;;;11.60;99.90;;;;;;5115659;28;20185;-58
2022/05/28 00:09:33;;;;;;;4.05;2.53;;;11.60;99.90;;;;;;5115545;28;20173;-58
2022/05/28 00:11:58;;;;;;;3.63;2.67;;;11.50;99.90;;;;;;5114254;28;20637;-58
2022/05/28 00:14:24;;;;;;;2.97;1.83;;;11.60;99.90;;;;;;5115591;28;20636;-59
2022/05/28 00:16:50;;;;;;;2.53;2.05;;;11.50;99.90;;;;;;5115686;28;20171;-60
2022/05/28 00:19:16;;;;;;;4.40;2.55;;;11.60;99.90;;;;;;5114311;28;20165;-59
2022/05/28 00:21:42;;;;;;;5.18;2.47;;;11.60;99.90;;;;;;5115269;28;20252;-59
2022/05/28 00:24:08;;;;;;;2.97;2.03;;;11.50;99.90;;;;;;5115279;28;20169;-59
2022/05/28 00:26:33;;;;;;;3.10;2.13;;;11.50;99.90;;;;;;5115138;28;20202;-59
2022/05/28 00:28:59;;;;;;;2.40;1.95;;;11.60;99.90;;;;;;5097060;28;20236;-59
2022/05/28 00:31:25;;;;;;;3.00;1.92;;;11.60;99.90;;;;;;5115281;28;20677;-59
2022/05/28 00:33:50;;;;;;;3.17;2.08;;;11.60;99.90;;;;;;5115215;28;20234;-60
2022/05/28 00:36:16;;;;;;;3.70;2.28;;;11.70;99.90;;;;;;5114013;28;20177;-59
2022/05/28 00:38:43;;;;;;;2.80;2.13;;;11.70;99.90;;;;;;5113848;28;20514;-59
2022/05/28 00:41:09;;;;;;;3.00;2.38;;;11.70;99.90;;;;;;5114909;28;20622;-58
2022/05/28 00:43:38;;;;;;;3.03;2.33;;;11.60;99.90;;;;;;5115083;28;20615;-59
2022/05/28 00:46:23;;;;;;;3.45;2.35;;;11.60;99.90;;;;;;5114830;28;20240;-59
2022/05/28 00:48:56;;;;;;;3.28;2.38;;;11.50;99.90;;;;;;5114848;28;20251;-58
2022/05/28 00:51:27;;;;;;;2.38;2.17;;;11.50;99.90;;;;;;5114879;28;20192;-58
2022/05/28 00:53:56;;;;;;;4.80;2.28;;;11.60;99.90;;;;;;5114863;28;20599;-58
2022/05/28 00:56:22;;;;;;;2.97;2.10;;;11.50;99.90;;;;;;5114885;28;20175;-58
2022/05/28 00:58:49;;;;;;;3.60;2.13;;;11.50;99.90;;;;;;5114782;28;20731;-58
2022/05/28 01:01:16;;;;;;;3.78;2.08;;;11.40;99.90;;;;;;5114506;28;20169;-59
2022/05/28 01:03:50;;;;;;;4.20;2.35;;;11.30;99.90;;;;;;5114510;28;20176;-59
2022/05/28 01:06:44;;;;;;;3.42;2.40;;;11.30;99.90;;;;;;5114479;28;20190;-59
2022/05/28 01:09:51;;;;;;;3.33;2.28;;;11.30;99.90;;;;;;5114793;28;20166;-58
2022/05/28 01:12:33;;;;;;;3.90;2.38;;;11.40;99.90;;;;;;5114422;28;20181;-58
2022/05/28 01:15:16;;;;;;;3.45;2.22;;;11.40;99.90;;;;;;5114416;28;20249;-58
2022/05/28 01:17:46;;;;;;;4.63;2.30;;;11.30;99.90;;;;;;5114232;28;20533;-59
2022/05/28 01:20:21;;;;;;;3.38;2.60;;;11.20;99.90;;;;;;5114336;28;20168;-58
2022/05/28 01:23:20;;;;;;;4.22;2.55;;;11.20;99.90;;;;;;5114139;28;20179;-59
2022/05/28 01:25:58;;;;;;;4.15;1.90;;;11.30;99.90;;;;;;5060830;28;20181;-59
2022/05/28 01:28:33;;;;;;;3.05;1.95;;;11.30;99.90;;;;;;5112855;28;20190;-58
2022/05/28 01:31:00;;;;;;;2.97;2.22;;;11.20;99.90;;;;;;5114049;28;20200;-59
2022/05/28 01:33:26;;;;;;;3.65;2.22;;;11.30;99.90;;;;;;5113010;28;20581;-58
2022/05/28 01:35:53;;;;;;;4.07;2.00;;;11.30;99.90;;;;;;5114030;28;20217;-59
2022/05/28 01:38:21;;;;;;;4.57;1.98;;;11.30;99.90;;;;;;5096151;28;20170;-59
2022/05/28 01:40:47;;;;;;;1.85;1.73;;;11.30;99.90;;;;;;5112746;28;20533;-58
2022/05/28 01:43:16;;;;;;;3.08;1.75;;;11.30;99.90;;;;;;5113990;28;20157;-58
2022/05/28 01:45:47;;;;;;;3.72;2.25;;;11.30;99.90;;;;;;5114103;28;20174;-59
2022/05/28 01:48:14;;;;;;;2.45;1.85;;;11.30;99.90;;;;;;5113857;28;20614;-58
2022/05/28 01:50:45;;;;;;;2.70;2.15;;;11.20;99.90;;;;;;5114007;28;20197;-58
2022/05/28 01:54:07;;;;;;;3.25;2.03;;;11.20;99.90;;;;;;5112627;28;20193;-58
2022/05/28 01:56:04;;;;;;;3.22;1.80;;;11.20;99.90;;;;;;5113529;28;20173;-59
2022/05/28 01:58:30;;;;;;;5.85;2.05;;;11.30;99.90;;;;;;5113711;28;20169;-58
2022/05/28 02:00:58;;;;;;;2.95;1.90;;;11.20;99.90;;;;;;5113866;28;20223;-59
2022/05/28 02:03:25;;;;;;;2.97;1.80;;;11.20;99.90;;;;;;5113741;28;20165;-58
2022/05/28 02:05:51;;;;;;;2.05;1.85;;;11.20;99.90;;;;;;5113692;28;20193;-59
2022/05/28 02:08:17;;;;;;;2.97;1.73;;;11.20;99.90;;;;;;5113632;28;20169;-58
2022/05/28 02:10:52;;;;;;;1.83;1.63;;;11.20;99.90;;;;;;5113515;28;20645;-59
2022/05/28 02:13:24;;;;;;;4.70;2.38;;;11.10;99.90;;;;;;5113840;28;20188;-58
2022/05/28 02:15:53;;;;;;;3.45;2.60;;;11.20;99.90;;;;;;5114001;28;20169;-58
2022/05/28 02:18:19;;;;;;;3.95;2.35;;;11.20;99.90;;;;;;5113627;28;20556;-59
2022/05/28 02:20:53;;;;;;;3.30;2.03;;;11.20;99.90;;;;;;5113548;28;20169;-58
2022/05/28 02:23:33;;;;;;;5.75;2.40;;;11.10;99.90;;;;;;5113477;28;20626;-58
2022/05/28 02:26:11;;;;;;;3.22;2.50;;;11.10;99.90;;;;;;5113741;28;20165;-58
2022/05/28 02:28:40;;;;;;;2.90;2.03;;;11.10;99.90;;;;;;5117742;28;20251;-58
2022/05/28 02:31:15;;;;;;;3.05;2.03;;;11.00;99.90;;;;;;5117536;28;20201;-59
2022/05/28 02:33:41;;;;;;;4.15;2.20;;;11.00;99.90;;;;;;5117315;28;20177;-58
2022/05/28 02:36:07;;;;;;;2.88;2.00;;;11.00;99.90;;;;;;5117711;28;20586;-58
2022/05/28 02:38:32;;;;;;;3.83;2.05;;;11.00;99.90;;;;;;5117378;28;20197;-59
2022/05/28 02:40:59;;;;;;;3.17;2.00;;;10.90;99.90;;;;;;5117155;28;20165;-59
2022/05/28 02:43:25;;;;;;;3.58;2.15;;;11.00;99.90;;;;;;5117287;28;20566;-58
2022/05/28 02:45:51;;;;;;;4.30;2.17;;;10.90;99.90;;;;;;5117196;28;20176;-59
2022/05/28 02:48:17;;;;;;;2.70;2.00;;;10.90;99.90;;;;;;5115816;28;20173;-58
2022/05/28 02:50:43;;;;;;;3.00;2.25;;;10.80;99.90;;;;;;5117018;28;20288;-58
2022/05/28 02:53:11;;;;;;;3.13;2.25;;;10.90;99.90;;;;;;5117066;28;20724;-59
2022/05/28 02:55:37;;;;;;;3.92;2.17;;;10.90;99.90;;;;;;5117208;28;20173;-58
2022/05/28 02:58:02;;;;;;;2.88;2.28;;;10.80;99.90;;;;;;5117046;28;20169;-59
2022/05/28 03:00:28;;;;;;;2.58;2.10;;;10.80;99.90;;;;;;5116072;28;20181;-59
2022/05/28 03:02:54;;;;;;;3.35;2.17;;;10.80;99.90;;;;;;5116733;28;20170;-59
2022/05/28 03:05:24;;;;;;;3.58;2.10;;;10.80;99.90;;;;;;5116710;28;20180;-59
2022/05/28 03:07:50;;;;;;;2.72;2.10;;;10.90;99.90;;;;;;5116900;28;20177;-60
2022/05/28 03:10:16;;;;;;;4.28;2.60;;;10.90;99.90;;;;;;5116757;28;20208;-59
2022/05/28 03:12:42;;;;;;;3.95;2.40;;;11.00;99.90;;;;;;5116672;28;20185;-58
2022/05/28 03:15:09;;;;;;;3.65;1.80;;;11.00;99.90;;;;;;5116715;28;20173;-58
2022/05/28 03:17:35;;;;;;;3.70;2.38;;;10.90;99.90;;;;;;5116548;28;20175;-58
2022/05/28 03:20:02;;;;;;;3.63;2.00;;;10.80;99.90;;;;;;5116957;28;20169;-58
2022/05/28 03:22:28;;;;;;;3.42;2.22;;;10.80;99.90;;;;;;5116601;28;20177;-58
2022/05/28 03:24:54;;;;;;;2.30;2.10;;;10.70;99.90;;;;;;5116567;28;20652;-58
2022/05/28 03:27:20;;;;;;;2.97;2.10;;;10.70;99.90;;;;;;5116475;28;20165;-58
2022/05/28 03:29:46;;;;;;;4.20;1.92;;;10.70;99.90;;;;;;5116265;28;20203;-59
2022/05/28 03:32:11;;;;;;;3.28;2.22;;;10.70;99.90;;;;;;5116257;28;20679;-58
2022/05/28 03:34:37;;;;;;;2.80;2.03;;;10.70;99.90;;;;;;5116497;28;20166;-58
2022/05/28 03:37:03;;;;;;;3.28;2.30;;;10.60;99.90;;;;;;5116156;28;20215;-59
2022/05/28 03:39:29;;;;;;;3.83;2.15;;;10.70;99.90;;;;;;5116212;28;20177;-58
2022/05/28 03:41:55;;;;;;;3.13;2.60;;;10.70;99.90;;;;;;5116162;28;20495;-58
2022/05/28 03:44:20;;;;;;;2.38;1.88;;;10.70;99.90;;;;;;5116163;28;20517;-59
2022/05/28 03:46:46;;;;;;;2.25;1.80;;;10.80;99.90;;;;;;5116057;28;20569;-58
2022/05/28 03:49:27;;;;;;;3.78;2.10;;;10.80;99.90;;;;;;5116085;28;20730;-56
2022/05/28 03:51:54;;;;;;;2.15;1.95;;;10.80;99.90;;;;;;5115994;28;20665;-58
2022/05/28 03:54:20;;;;;;;2.65;1.85;;;10.80;99.90;;;;;;5114755;28;20202;-58
2022/05/28 03:56:46;;;;;;;2.22;1.80;;;10.80;99.90;;;;;;5115826;28;20177;-58
2022/05/28 03:59:13;;;;;;;3.50;2.33;;;10.70;99.90;;;;;;5115741;28;20162;-58
2022/05/28 04:01:38;;;;;;;3.97;1.98;;;10.80;99.90;;;;;;5115654;28;20664;-59
2022/05/28 04:04:05;;;;;;;3.00;2.00;;;10.80;99.90;;;;;;5115873;28;20188;-59
2022/05/28 04:06:33;;;;;;;2.80;1.88;;;10.90;99.90;;;;;;5115409;28;20694;-58
2022/05/28 04:09:00;;;;;;;3.45;2.20;;;10.90;99.90;;;;;;5115731;28;20166;-58
2022/05/28 04:11:25;;;;;;;2.13;1.77;;;11.00;99.90;;;;;;5115508;28;20189;-59
2022/05/28 04:13:51;;;;;;;4.32;2.30;;;10.90;99.90;;;;;;5115377;28;20208;-59
2022/05/28 04:16:17;;;;;;;3.60;2.38;;;11.00;99.90;;;;;;5114744;28;20626;-59
2022/05/28 04:18:43;;;;;;;3.20;2.17;;;11.00;99.90;;;;;;5115504;28;20173;-58
2022/05/28 04:21:09;;;;;;;3.63;2.08;;;11.00;99.90;;;;;;5115429;28;20165;-58
2022/05/28 04:23:35;;;;;;;2.03;1.80;;;11.10;99.90;;;;;;5115345;28;20294;-58
2022/05/28 04:26:01;;;;;;;2.05;1.65;;;11.10;99.90;;;;;;5113910;28;20491;-59
2022/05/28 04:28:28;;;;;;;3.70;1.65;;;11.20;99.90;;;;;;5115191;28;20173;-59
2022/05/28 04:30:54;;;;;;;3.28;2.20;;;11.10;99.90;;;;;;5115030;28;20204;-59
2022/05/28 04:33:19;;;;;;;1.95;1.70;;;11.20;99.90;;;;;;5115307;28;20191;-59
2022/05/28 04:35:45;;;;;;;2.80;1.45;;;11.10;99.90;;;;;;5115091;28;20177;-59
2022/05/28 04:38:11;;;;;;;2.58;1.75;;;11.20;99.90;;;;;;5115020;28;20614;-58
2022/05/28 04:40:37;;;;;;;2.30;1.50;;;11.20;99.90;;;;;;5115003;28;20177;-59
2022/05/28 04:43:02;;;;;;;1.95;1.70;;;11.30;99.90;;;;;;5114881;28;20510;-58
2022/05/28 04:45:28;;;;;;;3.95;1.33;;;11.30;99.90;;;;;;5115007;28;20176;-59
2022/05/28 04:47:54;;;;;;;3.38;1.85;;;11.40;99.90;;;;;;5113660;28;20173;-58
2022/05/28 04:50:20;;;;;;;2.95;1.70;;;11.50;99.90;;;;;;5114134;28;20653;-58
2022/05/28 04:52:45;;;;;;;4.32;1.83;;;11.50;99.90;;;;;;5114810;28;20637;-58
2022/05/28 04:55:12;;;;;;;3.35;1.58;;;11.60;99.90;;;;;;5114630;28;20176;-59
2022/05/28 04:57:38;;;;;;;2.42;1.60;;;11.70;99.90;;;;;;5114618;28;20252;-59
2022/05/28 05:00:10;;;;;;;3.60;1.80;;;11.70;99.90;;;;;;5114735;28;20165;-59
2022/05/28 05:02:36;;;;;;;1.75;1.48;;;11.80;99.90;;;;;;5114793;28;20165;-58
2022/05/28 05:05:02;;;;;;;2.75;1.40;;;11.90;99.90;;;;;;5113379;28;20645;-59
2022/05/28 05:07:28;;;;;;;1.42;1.33;;;11.90;99.90;;;;;;5114260;28;20676;-58
2022/05/28 05:09:54;;;;;;;2.17;1.60;;;12.00;99.90;;;;;;5113213;28;20173;-58
2022/05/28 05:12:19;;;;;;;2.15;1.27;;;12.10;99.90;;;;;;5114529;28;20180;-59
2022/05/28 05:14:45;;;;;;;1.40;1.10;;;12.20;99.90;;;;;;5114466;28;20219;-58
2022/05/28 05:17:11;;;;;;;1.85;1.30;;;12.30;99.90;;;;;;5114453;28;20263;-58
2022/05/28 05:19:36;;;;;;;1.95;1.33;;;12.40;99.90;;;;;;5113043;28;20177;-58
2022/05/28 05:22:02;;;;;;;2.50;1.55;;;12.50;99.90;;;;;;5113248;28;20185;-59
2022/05/28 05:24:28;;;;;;;2.38;1.48;;;12.50;99.90;;;;;;5114081;28;20169;-59
2022/05/28 05:26:53;;;;;;;1.40;1.30;;;12.60;99.90;;;;;;5114336;28;20256;-57
2022/05/28 05:29:19;;;;;;;2.05;1.33;;;12.70;99.90;;;;;;5114297;28;20176;-59
2022/05/28 05:31:45;;;;;;;1.60;1.30;;;12.90;99.90;;;;;;5114100;28;20208;-59
2022/05/28 05:34:11;;;;;;;1.58;0.82;;;13.00;99.90;;;;;;5114128;28;20265;-58
2022/05/28 05:36:37;;;;;;;2.58;1.10;;;13.10;99.90;;;;;;5113061;28;20241;-56
2022/05/28 05:39:03;;;;;;;2.63;1.05;;;13.20;99.90;;;;;;5113889;28;20555;-57
2022/05/28 05:41:29;;;;;;;1.75;1.20;;;13.30;99.90;;;;;;5114165;28;20185;-57
2022/05/28 05:43:54;;;;;;;1.40;1.02;;;13.40;99.90;;;;;;5112716;28;20640;-57
2022/05/28 05:46:20;;;;;;;2.92;0.90;;;13.50;99.90;;;;;;5113994;28;20259;-57
2022/05/28 05:48:46;;;;;;;3.63;1.45;;;13.70;99.90;;;;;;5114163;28;20575;-57
2022/05/28 05:51:14;;;;;;;1.83;1.02;;;13.70;99.90;;;;;;5113795;28;20208;-57
2022/05/28 05:53:41;;;;;;;2.55;1.10;;;13.80;99.90;;;;;;5113736;28;20225;-59
2022/05/28 05:56:07;;;;;;;1.40;1.15;;;13.90;99.90;;;;;;5114117;28;20192;-57
2022/05/28 05:58:34;;;;;;;1.05;0.70;;;13.90;99.90;;;;;;5113926;28;20172;-57
2022/05/28 06:01:02;;;;;;;1.40;0.93;;;13.80;99.90;;;;;;5113762;28;20185;-57
2022/05/28 06:03:28;;;;;;;2.78;1.00;;;13.90;99.90;;;;;;5116773;28;20526;-58
2022/05/28 06:06:01;;;;;;;1.20;1.10;;;14.00;99.90;;;;;;5117920;28;20212;-57
2022/05/28 06:08:27;;;;;;;1.55;0.95;;;14.00;99.90;;;;;;5117885;28;20165;-58
2022/05/28 06:10:53;;;;;;;2.60;1.10;;;14.10;99.90;;;;;;5117726;28;20650;-57
2022/05/28 06:13:19;;;;;;;3.17;1.20;;;14.20;99.90;;;;;;5117942;28;20225;-57
2022/05/28 06:15:45;;;;;;;1.05;0.85;;;14.50;99.90;;;;;;5117913;28;20169;-57
2022/05/28 06:18:13;;;;;;;1.10;0.90;;;14.40;99.90;;;;;;5116536;28;20197;-57
2022/05/28 06:20:39;;;;;;;1.20;1.10;;;14.70;99.90;;;;;;5117633;28;20223;-58
2022/05/28 06:23:04;;;;;;;1.38;0.80;;;14.80;99.90;;;;;;5117840;28;20571;-57
2022/05/28 06:25:30;;;;;;;2.80;1.15;;;15.00;99.90;;;;;;5117706;28;20181;-57
2022/05/28 06:27:57;;;;;;;0.93;0.82;;;15.20;99.90;;;;;;5117709;28;20566;-57
2022/05/28 06:30:22;;;;;;;1.50;0.88;;;15.10;99.90;;;;;;5117470;28;20220;-57
2022/05/28 06:32:48;;;;;;;3.20;0.82;;;14.90;99.90;;;;;;5117539;28;20223;-57
2022/05/28 06:35:14;;;;;;;1.27;0.70;;;14.90;99.90;;;;;;5117494;28;20157;-58
2022/05/28 06:37:40;;;;;;;0.70;0.70;;;15.10;99.90;;;;;;5117558;28;20518;-57
2022/05/28 06:40:06;;;;;;;1.77;0.80;;;15.00;99.90;;;;;;5117481;28;20251;-57
2022/05/28 06:42:33;;;;;;;1.50;0.55;;;15.00;99.90;;;;;;5117265;28;20168;-57
2022/05/28 06:44:59;;;;;;;1.77;0.73;;;15.20;99.90;;;;;;5117283;28;20173;-57
2022/05/28 06:47:25;;;;;;;0.77;0.63;;;15.40;99.90;;;;;;5117141;28;20177;-57
2022/05/28 06:52:36;;;;;;;1.02;0.50;;;15.30;99.90;;;;;;5095307;28;20181;-57
2022/05/28 06:55:04;;;;;;;1.05;0.40;;;15.10;99.90;;;;;;5117092;28;20181;-58
2022/05/28 06:57:29;;;;;;;0.82;0.43;;;15.10;99.90;;;;;;5116917;28;20651;-57
2022/05/28 06:59:57;;;;;;;0.70;0.47;;;15.10;99.90;;;;;;5116922;28;20173;-57
2022/05/28 07:02:23;;;;;;;0.50;0.50;;;15.30;99.90;;;;;;5115815;28;20189;-57
2022/05/28 07:04:48;;;;;;;1.23;0.57;;;15.60;99.90;;;;;;5116992;28;20633;-57
2022/05/28 07:07:14;;;;;;;1.45;0.50;;;15.90;99.90;;;;;;5117142;28;20220;-57
2022/05/28 07:09:40;;;;;;;0.73;0.40;;;15.80;99.90;;;;;;5115706;28;20181;-57
2022/05/28 07:12:06;;;;;;;0.82;0.38;;;15.60;99.90;;;;;;5116222;28;20205;-57
2022/05/28 07:14:31;;;;;;;1.00;0.40;;;15.50;99.90;;;;;;5116566;28;20189;-57
2022/05/28 07:16:57;;;;;;;1.17;0.50;;;15.60;99.90;;;;;;5116508;28;20235;-57
2022/05/28 07:19:23;;;;;;;0.80;0.40;;;15.30;99.90;;;;;;5116383;28;20169;-57
2022/05/28 07:21:48;;;;;;;0.32;0.32;;;14.80;99.90;;;;;;5116646;28;20173;-57
2022/05/28 07:24:14;;;;;;;1.23;0.30;;;14.70;99.90;;;;;;5116471;28;20174;-57
2022/05/28 07:26:40;;;;;;;0.43;0.22;;;14.60;99.90;;;;;;5116385;28;20169;-57
2022/05/28 07:29:08;;;;;;;0.40;0.30;;;14.80;99.90;;;;;;5116338;28;20173;-57
2022/05/28 07:31:34;;;;;;;1.17;0.32;;;15.30;99.90;;;;;;5116179;28;20204;-57
2022/05/28 07:34:00;;;;;;;0.50;0.45;;;15.60;99.90;;;;;;5116396;28;20192;-57
2022/05/28 07:36:26;;;;;;;0.60;0.30;;;15.60;99.90;;;;;;5116323;28;20169;-58
2022/05/28 07:38:52;;;;;;;0.40;0.40;;;15.80;99.90;;;;;;5116280;28;20248;-59
2022/05/28 07:41:21;;;;;;;0.57;0.40;;;15.90;99.90;;;;;;5116381;28;20169;-58
2022/05/28 07:43:48;;;;;;;0.73;0.30;;;16.20;99.90;;;;;;5116004;28;20317;-59
2022/05/28 07:46:17;;;;;;;0.50;0.50;;;16.40;99.90;;;;;;5114722;28;20162;-58
2022/05/28 07:48:43;;;;;;;1.13;0.15;;;16.30;99.90;;;;;;5116115;28;20244;-57
2022/05/28 07:51:09;;;;;;;1.23;0.30;;;16.10;99.90;;;;;;5116021;28;20201;-57
2022/05/28 07:53:35;;;;;;;1.13;0.47;;;16.10;99.90;;;;;;5115761;28;20169;-57
2022/05/28 07:56:02;;;;;;;0.30;0.30;;;16.10;99.90;;;;;;5114541;28;20179;-57
2022/05/28 07:58:28;;;;;;;0.38;0.20;;;16.40;99.90;;;;;;5115732;28;20192;-58
2022/05/28 08:00:53;;;;;;;1.55;0.30;;;16.60;99.90;;;;;;5116160;28;20165;-57
2022/05/28 08:03:19;;;;;;;0.38;0.35;;;16.60;99.90;;;;;;5115961;28;20641;-57
2022/05/28 08:05:47;;;;;;;0.65;0.35;;;17.00;99.90;;;;;;5114389;28;20185;-57
2022/05/28 08:08:14;;;;;;;0.38;0.30;;;17.20;99.90;;;;;;5115613;28;20165;-57
2022/05/28 08:10:40;;;;;;;2.92;1.38;;;16.70;99.90;;;;;;5115502;28;20204;-58
2022/05/28 08:13:08;;;;;;;0.40;0.32;;;16.50;99.90;;;;;;5114207;28;20626;-57
2022/05/28 08:15:35;;;;;;;0.88;0.40;;;16.00;99.90;;;;;;5115690;28;20164;-58
2022/05/28 08:18:01;;;;;;;0.65;0.50;;;16.10;99.90;;;;;;5115521;28;20176;-57
2022/05/28 08:23:12;;;;;;;0.38;0.38;;;16.20;99.90;;;;;;5115616;28;20177;-57
2022/05/28 08:25:39;;;;;;;0.95;0.50;;;16.20;99.90;;;;;;5114193;28;20588;-57
2022/05/28 08:28:10;;;;;;;0.30;0.30;;;16.00;99.90;;;;;;5115378;28;20260;-57
2022/05/28 08:30:38;;;;;;;0.70;0.45;;;16.00;99.90;;;;;;5115194;28;20654;-57
2022/05/28 08:33:04;;;;;;;0.77;0.52;;;16.00;99.90;;;;;;5115271;28;20157;-57
2022/05/28 08:35:30;;;;;;;1.33;0.50;;;16.20;99.90;;;;;;5115150;28;20169;-57
2022/05/28 08:37:56;;;;;;;1.05;0.50;;;16.10;99.90;;;;;;5115072;28;20226;-57
2022/05/28 08:40:23;;;;;;;1.20;0.55;;;15.70;99.90;;;;;;5114843;28;20244;-57
2022/05/28 08:42:49;;;;;;;1.42;0.40;;;15.40;99.90;;;;;;5115035;28;20603;-57
2022/05/28 08:45:17;;;;;;;0.45;0.40;;;15.30;99.90;;;;;;5115047;28;20196;-57
2022/05/28 08:47:46;;;;;;;1.33;0.50;;;15.60;99.90;;;;;;5096589;28;20169;-57
2022/05/28 08:50:12;;;;;;;0.40;0.30;;;15.80;99.90;;;;;;5114634;28;20200;-57
2022/05/28 08:52:49;;;;;;;0.68;0.40;;;16.10;99.90;;;;;;5113433;28;20165;-58
2022/05/28 08:55:22;;;;;;;0.45;0.30;;;16.30;99.90;;;;;;5115014;28;20257;-58
2022/05/28 08:58:03;;;;;;;2.35;0.40;;;16.30;99.90;;;;;;5114743;28;20197;-57
2022/05/28 09:00:49;;;;;;;0.95;0.30;;;16.60;99.90;;;;;;5114620;28;20180;-57
2022/05/28 09:03:25;;;;;;;0.30;0.30;;;17.00;99.90;;;;;;5114464;28;20165;-57
2022/05/28 09:06:07;;;;;;;0.52;0.40;;;16.90;99.90;;;;;;5114730;28;20230;-58
2022/05/28 09:08:38;;;;;;;1.00;0.38;;;16.60;99.90;;;;;;5114486;28;20161;-57
2022/05/28 09:11:27;;;;;;;0.70;0.50;;;16.40;99.90;;;;;;5114329;28;20714;-58
2022/05/28 09:13:54;;;;;;;2.25;0.35;;;16.40;99.90;;;;;;5105960;28;20181;-57
2022/05/28 09:16:24;;;;;;;0.32;0.30;;;16.60;99.90;;;;;;5114361;28;20595;-57
2022/05/28 09:18:52;;;;;;;0.85;0.38;;;16.60;99.90;;;;;;5114456;28;20165;-58
2022/05/28 09:21:18;;;;;;;0.30;0.30;;;16.70;99.90;;;;;;5114368;28;20169;-57
2022/05/28 09:23:50;;;;;;;0.47;0.22;;;16.60;99.90;;;;;;5112928;28;20559;-57
2022/05/28 09:26:28;;;;;;;2.33;0.70;;;16.70;99.90;;;;;;5114121;28;20164;-57
2022/05/28 09:29:34;;;;;;;0.28;0.28;;;16.90;99.90;;;;;;5114189;28;20223;-57
2022/05/28 09:32:33;;;;;;;0.47;0.38;;;17.30;99.90;;;;;;5105584;28;20209;-57
2022/05/28 09:35:20;;;;;;;0.70;0.40;;;17.40;99.90;;;;;;5114206;28;20195;-57
2022/05/28 09:37:58;;;;;;;1.02;0.40;;;17.60;99.90;;;;;;5113984;28;20625;-57
2022/05/28 09:40:47;;;;;;;0.40;0.20;;;17.50;99.90;;;;;;5113982;28;20203;-57
2022/05/28 09:43:45;;;;;;;1.40;0.40;;;16.90;99.90;;;;;;5113758;28;20176;-57
2022/05/28 09:46:43;;;;;;;0.20;0.20;;;16.70;99.90;;;;;;5113830;28;20161;-57
2022/05/28 09:49:23;;;;;;;0.73;0.45;;;16.80;99.90;;;;;;5113746;28;20218;-57
2022/05/28 09:51:58;;;;;;;1.80;0.70;;;16.90;99.90;;;;;;5112641;28;20201;-57
2022/05/28 09:54:33;;;;;;;1.08;0.40;;;16.90;99.90;;;;;;5113807;28;20259;-58
2022/05/28 09:57:09;;;;;;;1.73;0.47;;;16.60;99.90;;;;;;5113696;28;20544;-58
2022/05/28 09:59:37;;;;;;;1.70;0.50;;;16.20;99.90;;;;;;5113608;28;20164;-58
2022/05/28 10:02:07;;;;;;;0.70;0.40;;;16.40;99.90;;;;;;5113878;28;20165;-58
2022/05/28 10:04:52;;;;;;;0.73;0.35;;;17.00;99.90;;;;;;5113787;28;20617;-58
2022/05/28 10:07:31;;;;;;;0.80;0.25;;;17.30;99.90;;;;;;5112741;28;20191;-58
2022/05/28 10:09:57;;;;;;;0.32;0.32;;;17.10;99.90;;;;;;5113420;28;20165;-58
2022/05/28 10:12:29;;;;;;;0.50;0.40;;;17.20;99.90;;;;;;5113694;28;20614;-58
2022/05/28 10:15:28;;;;;;;1.13;0.50;;;17.50;99.40;;;;;;5113734;28;20165;-58
2022/05/28 10:18:00;;;;;;;1.75;0.50;;;17.20;98.90;;;;;;5101910;28;20181;-59
2022/05/28 10:20:26;;;;;;;1.83;0.50;;;17.20;99.90;;;;;;5112170;28;20169;-59
2022/05/28 10:22:55;;;;;;;0.30;0.30;;;17.40;99.90;;;;;;5113647;28;20169;-59
2022/05/28 10:25:48;;;;;;;1.35;0.30;;;17.10;99.90;;;;;;5113589;28;20165;-58
2022/05/28 10:28:26;;;;;;;0.52;0.32;;;17.10;99.90;;;;;;5113474;28;20161;-59
2022/05/28 10:30:53;;;;;;;1.02;0.40;;;17.70;99.90;;;;;;5113354;28;20297;-59
2022/05/28 10:33:29;;;;;;;0.28;0.20;;;17.70;99.80;;;;;;5113547;28;20238;-59
2022/05/28 10:36:13;;;;;;;1.45;0.52;;;17.50;99.90;;;;;;5113693;28;20199;-59
2022/05/28 10:38:39;;;;;;;0.30;0.30;;;16.70;99.30;;;;;;5113466;28;20168;-59
2022/05/28 10:41:26;;;;;;;1.23;0.40;;;16.70;99.70;;;;;;5113297;28;20165;-59
2022/05/28 10:43:52;;;;;;;0.82;0.30;;;17.00;99.90;;;;;;5113535;28;20162;-59
2022/05/28 10:46:49;;;;;;;0.73;0.40;;;16.60;99.90;;;;;;5113355;28;20191;-58
2022/05/28 10:49:40;;;;;;;0.38;0.30;;;16.20;99.90;;;;;;5116630;28;20162;-59
2022/05/28 10:52:46;;;;;;;0.47;0.35;;;16.30;99.90;;;;;;5117162;28;20349;-59
2022/05/28 10:55:22;;;;;;;0.80;0.47;;;17.10;99.90;;;;;;5117013;28;20173;-59
2022/05/28 10:58:11;;;;;;;1.17;0.57;;;17.90;99.90;;;;;;5116800;28;20172;-58
2022/05/28 11:00:55;;;;;;;0.52;0.50;;;17.80;99.30;;;;;;5117076;28;20170;-58
2022/05/28 11:03:23;;;;;;;2.42;0.65;;;17.20;99.90;;;;;;5116901;28;20256;-59
2022/05/28 11:05:54;;;;;;;0.30;0.30;;;17.60;99.70;;;;;;5116815;28;20179;-59
2022/05/28 11:08:39;;;;;;;0.60;0.60;;;17.40;99.70;;;;;;5116729;28;20223;-59
2022/05/28 11:11:46;;;;;;;0.57;0.40;;;16.80;99.60;;;;;;5116822;28;20718;-59
2022/05/28 11:14:21;;;;;;;2.17;0.50;;;16.80;99.90;;;;;;5108441;28;20208;-58
2022/05/28 11:17:00;;;;;;;0.90;0.47;;;16.50;99.20;;;;;;5116556;28;20240;-59
2022/05/28 11:19:49;;;;;;;0.35;0.32;;;16.40;99.90;;;;;;5116823;28;20256;-60
2022/05/28 11:22:38;;;;;;;0.65;0.47;;;17.10;99.60;;;;;;5116657;28;20197;-59
2022/05/28 11:25:13;;;;;;;0.30;0.30;;;16.90;99.60;;;;;;5116301;27;20176;-59
2022/05/28 11:27:45;;;;;;;0.88;0.47;;;16.80;99.90;;;;;;5116373;28;20632;-59
2022/05/28 11:30:35;;;;;;;0.65;0.32;;;17.20;99.90;;;;;;5116341;28;20248;-59
2022/05/28 11:33:21;;;;;;;0.40;0.38;;;17.30;99.40;;;;;;5115261;28;20188;-59
2022/05/28 11:35:52;;;;;;;1.13;0.40;;;17.00;99.90;;;;;;5115143;28;20570;-59
2022/05/28 11:38:40;;;;;;;0.30;0.30;;;17.00;99.90;;;;;;5116303;28;20161;-58
2022/05/28 11:41:34;;;;;;;0.60;0.30;;;17.40;99.90;;;;;;5116394;28;20165;-58
2022/05/28 11:44:15;;;;;;;0.50;0.43;;;17.30;99.90;;;;;;5116369;28;20165;-58
2022/05/28 11:47:00;;;;;;;0.50;0.40;;;16.80;99.30;;;;;;5116373;28;20248;-59
2022/05/28 11:52:36;;;;;;;0.65;0.38;;;16.80;99.90;;;;;;5116354;28;20184;-58
2022/05/28 11:55:20;;;;;;;1.30;0.50;;;17.20;98.70;;;;;;5116162;28;20475;-59
2022/05/28 11:58:01;;;;;;;1.55;0.50;;;17.30;99.40;;;;;;5115927;28;20173;-58
2022/05/28 12:00:32;;;;;;;1.05;0.52;;;16.90;98.80;;;;;;5114681;28;20188;-59
2022/05/28 12:03:05;;;;;;;0.95;0.40;;;17.10;99.90;;;;;;5116169;28;20196;-59
2022/05/28 12:05:47;;;;;;;0.52;0.40;;;17.20;99.60;;;;;;5115665;28;20178;-59
2022/05/28 12:08:31;;;;;;;0.60;0.40;;;17.40;99.60;;;;;;5115677;28;20256;-58
2022/05/28 12:11:21;;;;;;;0.65;0.40;;;17.50;98.20;;;;;;5114492;28;20189;-58
2022/05/28 12:13:51;;;;;;;0.40;0.22;;;17.60;99.10;;;;;;5115682;28;20173;-59
2022/05/28 12:16:17;;;;;;;0.98;0.35;;;17.30;98.00;;;;;;5115552;28;20172;-59
2022/05/28 12:18:59;;;;;;;1.20;0.40;;;17.20;97.50;;;;;;5115397;28;20221;-61
2022/05/28 12:21:34;;;;;;;0.95;0.50;;;17.40;98.40;;;;;;5115509;28;20214;-58
2022/05/28 12:24:10;;;;;;;0.28;0.28;;;16.90;97.60;;;;;;5115537;28;20636;-58
2022/05/28 12:29:33;;;;;;;0.95;0.50;;;16.90;99.30;;;;;;5115384;28;20173;-59
2022/05/28 12:32:14;;;;;;;0.43;0.30;;;17.30;98.80;;;;;;5115170;28;20205;-58
2022/05/28 12:34:53;;;;;;;0.65;0.52;;;17.40;98.00;;;;;;5115315;28;20169;-58
2022/05/28 12:37:33;;;;;;;0.93;0.50;;;17.40;98.20;;;;;;5114942;28;20168;-59
2022/05/28 12:40:20;;;;;;;1.13;0.47;;;17.00;97.10;;;;;;5114914;28;20175;-58
2022/05/28 12:42:45;;;;;;;0.73;0.50;;;16.60;97.60;;;;;;5115281;28;20172;-59
2022/05/28 12:45:38;;;;;;;1.10;0.45;;;16.30;97.70;;;;;;5115278;28;20165;-59
2022/05/28 12:48:15;;;;;;;1.27;0.35;;;16.60;99.40;;;;;;5114820;28;20214;-59
2022/05/28 12:50:59;;;;;;;0.30;0.30;;;16.80;97.10;;;;;;5114921;28;20185;-59
2022/05/28 12:53:27;;;;;;;0.20;0.20;;;16.60;96.30;;;;;;5114952;28;20222;-59
2022/05/28 12:56:23;;;;;;;0.25;0.25;;;16.60;97.30;;;;;;5114767;28;20165;-59
2022/05/28 12:58:49;;;;;;;1.02;0.30;;;16.90;94.70;;;;;;5093123;28;20222;-58
2022/05/28 13:01:26;;;;;;;0.80;0.40;;;16.70;96.00;;;;;;5114793;28;20178;-59
2022/05/28 13:03:53;;;;;;;0.73;0.32;;;16.80;95.80;;;;;;5114621;28;20177;-59
2022/05/28 13:06:27;;;;;;;0.55;0.40;;;16.40;95.70;;;;;;5114468;28;20213;-59
2022/05/28 13:09:03;;;;;;;0.40;0.40;;;16.30;96.00;;;;;;5114514;28;20169;-59
2022/05/28 13:11:49;;;;;;;0.82;0.40;;;16.60;96.40;;;;;;5114104;28;20211;-59
2022/05/28 13:14:32;;;;;;;0.28;0.20;;;16.60;95.90;;;;;;5114239;28;20169;-60
2022/05/28 13:17:16;;;;;;;0.45;0.25;;;16.50;95.20;;;;;;5114532;28;20275;-59
2022/05/28 13:20:06;;;;;;;2.20;0.30;;;16.50;96.20;;;;;;5114163;28;20617;-60
2022/05/28 13:23:10;;;;;;;0.65;0.30;;;16.70;94.80;;;;;;5114515;28;20194;-59